createdAt,value
2017-06-10T00:00:58.831Z,0
2017-06-10T00:01:58.825Z,0
2017-06-10T00:02:58.819Z,0
2017-06-10T00:03:58.853Z,0
2017-06-10T00:04:58.813Z,0
2017-06-10T00:05:58.537Z,0
2017-06-10T00:06:58.801Z,0
2017-06-10T00:07:58.809Z,0
2017-06-10T00:08:58.802Z,0
2017-06-10T00:09:58.801Z,0
2017-06-10T00:10:58.795Z,0
2017-06-10T00:11:58.792Z,0
2017-06-10T00:12:58.791Z,0
2017-06-10T00:13:58.477Z,0
2017-06-10T00:14:58.794Z,0
2017-06-10T00:15:58.476Z,0
2017-06-10T00:16:58.167Z,0
2017-06-10T00:17:58.463Z,0
2017-06-10T00:18:58.767Z,0
2017-06-10T00:19:58.760Z,0
2017-06-10T00:20:58.754Z,0
2017-06-10T00:21:58.752Z,0
2017-06-10T00:22:58.750Z,0
2017-06-10T00:23:58.754Z,0
2017-06-10T00:24:58.745Z,0
2017-06-10T00:25:58.741Z,0
2017-06-10T00:26:58.738Z,0
2017-06-10T00:27:58.731Z,0
2017-06-10T00:28:58.122Z,0
2017-06-10T00:29:58.728Z,0
2017-06-10T00:30:58.415Z,0
2017-06-10T00:31:58.719Z,0
2017-06-10T00:32:58.407Z,0
2017-06-10T00:33:58.101Z,0
2017-06-10T00:34:57.796Z,0
2017-06-10T00:35:58.701Z,0
2017-06-10T00:36:58.399Z,0
2017-06-10T00:37:58.390Z,0
2017-06-10T00:38:58.698Z,0
2017-06-10T00:39:58.696Z,0
2017-06-10T00:40:58.683Z,0
2017-06-10T00:41:58.678Z,0
2017-06-10T00:42:58.374Z,0
2017-06-10T00:43:58.675Z,0
2017-06-10T00:44:58.670Z,0
2017-06-10T00:45:58.365Z,0
2017-06-10T00:46:58.660Z,0
2017-06-10T00:47:58.661Z,0
2017-06-10T00:48:58.658Z,0
2017-06-10T00:49:58.348Z,0
2017-06-10T00:50:58.652Z,0
2017-06-10T00:51:58.682Z,0
2017-06-10T00:52:58.641Z,0
2017-06-10T00:53:58.638Z,0
2017-06-10T00:54:58.328Z,0
2017-06-10T00:55:58.333Z,0
2017-06-10T00:56:58.318Z,0
2017-06-10T00:57:58.624Z,0
2017-06-10T00:58:58.618Z,0
2017-06-10T00:59:58.614Z,0
2017-06-10T01:00:58.007Z,0
2017-06-10T01:01:58.303Z,0
2017-06-10T01:02:58.606Z,0
2017-06-10T01:03:58.600Z,0
2017-06-10T01:04:58.605Z,0
2017-06-10T01:05:58.318Z,0
2017-06-10T01:06:58.590Z,0
2017-06-10T01:07:58.590Z,0
2017-06-10T01:08:58.585Z,0
2017-06-10T01:09:58.273Z,0
2017-06-10T01:10:58.272Z,0
2017-06-10T01:11:58.270Z,0
2017-06-10T01:12:58.266Z,0
2017-06-10T01:13:58.264Z,0
2017-06-10T01:14:58.284Z,0
2017-06-10T01:15:58.252Z,0
2017-06-10T01:16:58.249Z,0
2017-06-10T01:17:58.247Z,0
2017-06-10T01:18:58.244Z,0
2017-06-10T01:19:57.935Z,0
2017-06-10T01:20:58.540Z,0
2017-06-10T01:21:58.564Z,0
2017-06-10T01:22:58.232Z,0
2017-06-10T01:23:58.228Z,0
2017-06-10T01:24:58.542Z,0
2017-06-10T01:25:58.218Z,0
2017-06-10T01:26:58.211Z,0
2017-06-10T01:27:58.518Z,0
2017-06-10T01:28:58.514Z,0
2017-06-10T01:29:58.508Z,0
2017-06-10T01:30:58.508Z,0
2017-06-10T01:31:58.502Z,0
2017-06-10T01:32:58.495Z,0
2017-06-10T01:33:58.183Z,0
2017-06-10T01:34:58.487Z,0
2017-06-10T01:35:58.496Z,0
2017-06-10T01:36:58.485Z,0
2017-06-10T01:37:58.480Z,0
2017-06-10T01:38:58.173Z,0
2017-06-10T01:39:58.474Z,0
2017-06-10T01:40:58.160Z,0
2017-06-10T01:41:58.466Z,0
2017-06-10T01:42:58.461Z,0
2017-06-10T01:43:58.148Z,0
2017-06-10T01:44:58.148Z,0
2017-06-10T01:45:58.447Z,0
2017-06-10T01:46:58.141Z,0
2017-06-10T01:47:58.447Z,0
2017-06-10T01:48:58.440Z,0
2017-06-10T01:49:58.133Z,0
2017-06-10T01:50:58.431Z,0
2017-06-10T01:51:58.124Z,0
2017-06-10T01:52:58.125Z,0
2017-06-10T01:53:58.421Z,0
2017-06-10T01:54:57.807Z,0
2017-06-10T01:55:58.109Z,0
2017-06-10T01:56:58.101Z,0
2017-06-10T01:57:58.407Z,0
2017-06-10T01:58:57.787Z,0
2017-06-10T01:59:58.403Z,0
2017-06-10T02:00:57.789Z,0
2017-06-10T02:01:58.082Z,0
2017-06-10T02:02:57.777Z,0
2017-06-10T02:03:58.381Z,0
2017-06-10T02:04:57.775Z,0
2017-06-10T02:05:58.381Z,0
2017-06-10T02:06:58.381Z,0
2017-06-10T02:07:58.374Z,0
2017-06-10T02:08:58.057Z,0
2017-06-10T02:09:57.756Z,0
2017-06-10T02:10:58.358Z,0
2017-06-10T02:11:58.076Z,0
2017-06-10T02:12:58.041Z,0
2017-06-10T02:13:58.079Z,0
2017-06-10T02:14:58.035Z,0
2017-06-10T02:15:58.041Z,0
2017-06-10T02:16:58.031Z,0
2017-06-10T02:17:58.024Z,0
2017-06-10T02:18:58.330Z,0
2017-06-10T02:19:58.327Z,0
2017-06-10T02:20:58.013Z,0
2017-06-10T02:21:57.708Z,0
2017-06-10T02:22:58.310Z,0
2017-06-10T02:23:58.336Z,0
2017-06-10T02:24:58.306Z,0
2017-06-10T02:25:58.298Z,0
2017-06-10T02:26:57.993Z,0
2017-06-10T02:27:58.309Z,0
2017-06-10T02:28:58.299Z,0
2017-06-10T02:29:57.977Z,0
2017-06-10T02:30:57.982Z,0
2017-06-10T02:31:57.980Z,0
2017-06-10T02:32:57.968Z,0
2017-06-10T02:33:58.279Z,0
2017-06-10T02:34:57.963Z,0
2017-06-10T02:35:57.961Z,0
2017-06-10T02:36:58.259Z,0
2017-06-10T02:37:57.954Z,0
2017-06-10T02:38:57.637Z,0
2017-06-10T02:39:57.635Z,0
2017-06-10T02:40:58.245Z,0
2017-06-10T02:41:58.242Z,0
2017-06-10T02:42:58.243Z,0
2017-06-10T02:43:58.231Z,0
2017-06-10T02:44:57.932Z,0
2017-06-10T02:45:57.614Z,0
2017-06-10T02:46:57.915Z,0
2017-06-10T02:47:58.224Z,0
2017-06-10T02:48:58.218Z,0
2017-06-10T02:49:57.907Z,0
2017-06-10T02:50:57.593Z,0
2017-06-10T02:51:58.204Z,0
2017-06-10T02:52:58.206Z,0
2017-06-10T02:53:58.195Z,0
2017-06-10T02:54:57.884Z,0
2017-06-10T02:55:58.191Z,0
2017-06-10T02:56:58.190Z,4
2017-06-10T02:57:58.181Z,0
2017-06-10T02:58:57.567Z,0
2017-06-10T02:59:58.179Z,4
2017-06-10T03:00:58.175Z,4
2017-06-10T03:01:57.861Z,4
2017-06-10T03:02:58.165Z,4
2017-06-10T03:03:57.860Z,4
2017-06-10T03:04:58.155Z,4
2017-06-10T03:05:57.846Z,4
2017-06-10T03:06:57.847Z,4
2017-06-10T03:07:57.843Z,8
2017-06-10T03:08:57.836Z,8
2017-06-10T03:09:58.136Z,12
2017-06-10T03:10:58.140Z,12
2017-06-10T03:11:58.129Z,12
2017-06-10T03:12:58.124Z,16
2017-06-10T03:13:57.820Z,20
2017-06-10T03:14:57.814Z,28
2017-06-10T03:15:58.112Z,32
2017-06-10T03:16:57.809Z,32
2017-06-10T03:17:57.801Z,36
2017-06-10T03:18:58.104Z,44
2017-06-10T03:19:57.486Z,48
2017-06-10T03:20:57.788Z,52
2017-06-10T03:21:58.096Z,56
2017-06-10T03:22:58.085Z,64
2017-06-10T03:23:57.475Z,68
2017-06-10T03:24:58.078Z,72
2017-06-10T03:25:57.464Z,76
2017-06-10T03:26:58.078Z,72
2017-06-10T03:27:57.762Z,76
2017-06-10T03:28:57.761Z,76
2017-06-10T03:29:57.757Z,80
2017-06-10T03:30:57.760Z,84
2017-06-10T03:31:58.057Z,88
2017-06-10T03:32:57.747Z,100
2017-06-10T03:33:57.745Z,112
2017-06-10T03:34:58.047Z,132
2017-06-10T03:35:57.120Z,148
2017-06-10T03:36:57.424Z,160
2017-06-10T03:37:57.727Z,172
2017-06-10T03:38:57.721Z,192
2017-06-10T03:39:58.229Z,208
2017-06-10T03:40:57.108Z,232
2017-06-10T03:41:57.708Z,248
2017-06-10T03:42:57.096Z,264
2017-06-10T03:43:58.012Z,280
2017-06-10T03:44:57.392Z,292
2017-06-10T03:45:57.388Z,316
2017-06-10T03:46:57.686Z,324
2017-06-10T03:47:57.991Z,328
2017-06-10T03:48:57.687Z,324
2017-06-10T03:49:57.682Z,340
2017-06-10T03:50:57.987Z,368
2017-06-10T03:51:57.977Z,368
2017-06-10T03:52:57.971Z,348
2017-06-10T03:53:57.665Z,340
2017-06-10T03:54:57.660Z,360
2017-06-10T03:55:57.960Z,372
2017-06-10T03:56:57.955Z,340
2017-06-10T03:57:57.952Z,288
2017-06-10T03:58:57.951Z,256
2017-06-10T03:59:57.942Z,248
2017-06-10T04:00:57.653Z,248
2017-06-10T04:01:57.938Z,232
2017-06-10T04:02:57.630Z,212
2017-06-10T04:03:57.934Z,204
2017-06-10T04:04:57.927Z,216
2017-06-10T04:05:57.926Z,240
2017-06-10T04:06:57.306Z,280
2017-06-10T04:07:57.608Z,320
2017-06-10T04:08:57.916Z,348
2017-06-10T04:09:57.910Z,372
2017-06-10T04:10:57.600Z,404
2017-06-10T04:11:57.902Z,444
2017-06-10T04:12:57.896Z,484
2017-06-10T04:13:57.894Z,520
2017-06-10T04:14:57.583Z,588
2017-06-10T04:15:57.582Z,588
2017-06-10T04:16:57.584Z,588
2017-06-10T04:17:57.575Z,548
2017-06-10T04:18:57.875Z,536
2017-06-10T04:19:57.569Z,548
2017-06-10T04:20:57.868Z,512
2017-06-10T04:21:57.251Z,556
2017-06-10T04:22:57.860Z,692
2017-06-10T04:23:57.551Z,580
2017-06-10T04:24:57.238Z,632
2017-06-10T04:25:57.854Z,760
2017-06-10T04:26:57.845Z,880
2017-06-10T04:27:57.543Z,988
2017-06-10T04:28:57.834Z,1044
2017-06-10T04:29:57.837Z,1084
2017-06-10T04:30:57.526Z,1116
2017-06-10T04:31:57.826Z,1148
2017-06-10T04:32:57.523Z,1208
2017-06-10T04:33:57.520Z,1200
2017-06-10T04:34:57.514Z,1676
2017-06-10T04:35:57.814Z,1276
2017-06-10T04:36:57.813Z,1220
2017-06-10T04:37:57.803Z,1152
2017-06-10T04:38:57.800Z,1176
2017-06-10T04:39:57.496Z,1064
2017-06-10T04:40:57.794Z,1132
2017-06-10T04:41:57.790Z,1124
2017-06-10T04:42:57.789Z,1144
2017-06-10T04:43:57.201Z,1088
2017-06-10T04:44:57.781Z,1044
2017-06-10T04:45:57.166Z,1060
2017-06-10T04:46:57.464Z,1304
2017-06-10T04:47:57.462Z,1324
2017-06-10T04:48:57.768Z,1484
2017-06-10T04:49:57.459Z,1608
2017-06-10T04:50:57.148Z,1740
2017-06-10T04:51:57.448Z,1760
2017-06-10T04:52:57.442Z,1764
2017-06-10T04:53:57.441Z,1708
2017-06-10T04:54:57.133Z,1736
2017-06-10T04:55:57.435Z,1892
2017-06-10T04:56:57.736Z,2228
2017-06-10T04:57:57.423Z,3576
2017-06-10T04:58:57.426Z,2728
2017-06-10T04:59:57.721Z,4384
2017-06-10T05:00:57.747Z,4136
2017-06-10T05:01:57.414Z,3192
2017-06-10T05:02:57.715Z,11080
2017-06-10T05:03:57.408Z,10096
2017-06-10T05:04:57.708Z,6748
2017-06-10T05:05:57.704Z,8212
2017-06-10T05:06:57.421Z,2288
2017-06-10T05:07:57.701Z,2304
2017-06-10T05:08:57.083Z,2080
2017-06-10T05:09:57.695Z,2128
2017-06-10T05:10:57.688Z,2000
2017-06-10T05:11:57.687Z,2104
2017-06-10T05:12:57.373Z,2448
2017-06-10T05:13:57.683Z,2344
2017-06-10T05:14:57.679Z,2152
2017-06-10T05:15:57.366Z,2308
2017-06-10T05:16:57.672Z,2472
2017-06-10T05:17:57.358Z,2816
2017-06-10T05:18:57.669Z,2828
2017-06-10T05:19:57.351Z,2884
2017-06-10T05:20:57.657Z,3208
2017-06-10T05:21:57.040Z,3376
2017-06-10T05:22:57.654Z,3872
2017-06-10T05:23:57.649Z,10608
2017-06-10T05:24:57.645Z,4528
2017-06-10T05:25:57.674Z,12676
2017-06-10T05:26:57.644Z,4448
2017-06-10T05:27:57.355Z,8440
2017-06-10T05:28:57.638Z,4516
2017-06-10T05:29:57.019Z,4496
2017-06-10T05:30:57.319Z,15808
2017-06-10T05:31:57.628Z,4304
2017-06-10T05:32:57.314Z,4492
2017-06-10T05:33:57.319Z,7828
2017-06-10T05:34:57.004Z,5348
2017-06-10T05:35:57.615Z,6248
2017-06-10T05:36:57.305Z,6028
2017-06-10T05:37:57.311Z,8652
2017-06-10T05:38:57.607Z,19776
2017-06-10T05:39:57.605Z,5424
2017-06-10T05:40:56.985Z,5252
2017-06-10T05:41:57.599Z,22656
2017-06-10T05:42:57.596Z,22560
2017-06-10T05:43:57.590Z,14784
2017-06-10T05:44:57.591Z,11600
2017-06-10T05:45:57.280Z,5404
2017-06-10T05:46:57.587Z,22144
2017-06-10T05:47:57.587Z,16992
2017-06-10T05:48:57.582Z,23776
2017-06-10T05:49:57.584Z,25088
2017-06-10T05:50:57.584Z,5892
2017-06-10T05:51:57.578Z,25952
2017-06-10T05:52:57.274Z,5916
2017-06-10T05:53:57.577Z,5836
2017-06-10T05:54:57.272Z,18464
2017-06-10T05:55:57.275Z,5080
2017-06-10T05:56:57.571Z,18208
2017-06-10T05:57:57.573Z,5696
2017-06-10T05:58:56.962Z,5808
2017-06-10T05:59:57.261Z,22432
2017-06-10T06:00:57.566Z,5304
2017-06-10T06:01:57.258Z,5948
2017-06-10T06:02:57.287Z,5956
2017-06-10T06:03:57.262Z,6044
2017-06-10T06:04:57.257Z,6112
2017-06-10T06:05:57.564Z,6904
2017-06-10T06:06:57.566Z,7148
2017-06-10T06:07:57.580Z,6076
2017-06-10T06:08:57.558Z,22624
2017-06-10T06:09:57.255Z,9808
2017-06-10T06:10:57.557Z,11704
2017-06-10T06:11:57.556Z,20896
2017-06-10T06:12:56.945Z,11464
2017-06-10T06:13:57.250Z,26240
2017-06-10T06:14:57.249Z,29824
2017-06-10T06:15:57.553Z,10996
2017-06-10T06:16:57.245Z,26816
2017-06-10T06:17:57.247Z,14596
2017-06-10T06:18:57.243Z,12740
2017-06-10T06:19:57.555Z,12664
2017-06-10T06:20:57.547Z,35776
2017-06-10T06:21:57.553Z,9548
2017-06-10T06:22:57.242Z,15572
2017-06-10T06:23:57.242Z,21088
2017-06-10T06:24:57.246Z,24768
2017-06-10T06:25:56.935Z,23040
2017-06-10T06:26:57.243Z,29312
2017-06-10T06:27:57.547Z,31552
2017-06-10T06:28:57.243Z,34528
2017-06-10T06:29:57.543Z,33920
2017-06-10T06:30:57.239Z,34240
2017-06-10T06:31:57.244Z,33600
2017-06-10T06:32:57.250Z,34720
2017-06-10T06:33:57.551Z,35296
2017-06-10T06:34:57.551Z,34880
2017-06-10T06:35:57.548Z,34976
2017-06-10T06:36:57.576Z,35584
2017-06-10T06:37:57.559Z,34976
2017-06-10T06:38:57.547Z,34208
2017-06-10T06:39:57.551Z,33344
2017-06-10T06:40:57.248Z,33152
2017-06-10T06:41:57.244Z,34368
2017-06-10T06:42:57.552Z,33888
2017-06-10T06:43:57.552Z,34112
2017-06-10T06:44:57.247Z,33632
2017-06-10T06:45:56.943Z,33472
2017-06-10T06:46:57.557Z,33216
2017-06-10T06:47:57.257Z,33952
2017-06-10T06:48:57.557Z,33408
2017-06-10T06:49:57.254Z,32416
2017-06-10T06:50:57.556Z,32416
2017-06-10T06:51:57.258Z,31936
2017-06-10T06:52:57.564Z,31232
2017-06-10T06:53:57.279Z,32160
2017-06-10T06:54:57.262Z,33344
2017-06-10T06:55:57.562Z,33824
2017-06-10T06:56:57.561Z,34048
2017-06-10T06:57:57.257Z,34080
2017-06-10T06:58:57.268Z,33088
2017-06-10T06:59:57.263Z,32640
2017-06-10T07:00:57.265Z,33824
2017-06-10T07:01:57.563Z,34912
2017-06-10T07:02:57.565Z,33792
2017-06-10T07:03:57.260Z,32160
2017-06-10T07:04:57.261Z,26656
2017-06-10T07:05:57.566Z,17920
2017-06-10T07:06:57.260Z,10988
2017-06-10T07:07:57.567Z,9400
2017-06-10T07:08:57.575Z,9216
2017-06-10T07:09:57.569Z,9116
2017-06-10T07:10:57.573Z,9008
2017-06-10T07:11:57.567Z,8884
2017-06-10T07:12:57.567Z,8772
2017-06-10T07:13:57.566Z,8632
2017-06-10T07:14:57.258Z,8556
2017-06-10T07:15:57.269Z,8464
2017-06-10T07:16:57.568Z,8392
2017-06-10T07:17:57.567Z,8296
2017-06-10T07:18:57.563Z,8192
2017-06-10T07:19:57.266Z,8100
2017-06-10T07:20:57.561Z,8020
2017-06-10T07:21:57.256Z,7956
2017-06-10T07:22:57.259Z,7860
2017-06-10T07:23:57.259Z,7768
2017-06-10T07:24:56.953Z,7712
2017-06-10T07:25:57.255Z,7704
2017-06-10T07:26:57.253Z,7652
2017-06-10T07:27:57.560Z,7628
2017-06-10T07:28:57.560Z,7612
2017-06-10T07:29:57.558Z,7548
2017-06-10T07:30:57.252Z,7492
2017-06-10T07:31:57.251Z,7484
2017-06-10T07:32:57.557Z,7440
2017-06-10T07:33:56.638Z,7340
2017-06-10T07:34:57.253Z,7316
2017-06-10T07:35:57.551Z,7212
2017-06-10T07:36:57.550Z,7124
2017-06-10T07:37:56.944Z,7052
2017-06-10T07:38:57.249Z,7000
2017-06-10T07:39:56.938Z,6956
2017-06-10T07:40:57.548Z,6860
2017-06-10T07:41:57.547Z,6808
2017-06-10T07:42:57.240Z,6832
2017-06-10T07:43:57.241Z,6836
2017-06-10T07:44:57.548Z,6724
2017-06-10T07:45:57.233Z,6560
2017-06-10T07:46:57.544Z,6368
2017-06-10T07:47:57.540Z,6280
2017-06-10T07:48:57.544Z,6300
2017-06-10T07:49:57.234Z,6400
2017-06-10T07:50:57.540Z,6440
2017-06-10T07:51:57.231Z,6296
2017-06-10T07:52:57.236Z,6056
2017-06-10T07:53:57.236Z,5948
2017-06-10T07:54:57.737Z,5832
2017-06-10T07:55:57.232Z,5712
2017-06-10T07:56:57.228Z,5604
2017-06-10T07:57:56.623Z,5516
2017-06-10T07:58:57.232Z,5508
2017-06-10T07:59:57.529Z,4336
2017-06-10T08:00:57.566Z,5304
2017-06-10T08:01:57.528Z,5340
2017-06-10T08:02:57.226Z,5480
2017-06-10T08:03:57.219Z,5276
2017-06-10T08:04:57.531Z,4980
2017-06-10T08:05:57.526Z,4776
2017-06-10T08:06:56.911Z,4784
2017-06-10T08:07:57.218Z,4828
2017-06-10T08:08:57.215Z,4644
2017-06-10T08:09:57.216Z,4500
2017-06-10T08:10:57.519Z,4328
2017-06-10T08:11:57.211Z,4204
2017-06-10T08:12:57.212Z,4100
2017-06-10T08:13:57.522Z,3996
2017-06-10T08:14:57.510Z,3912
2017-06-10T08:15:56.934Z,3820
2017-06-10T08:16:56.909Z,3704
2017-06-10T08:17:57.202Z,3592
2017-06-10T08:18:57.201Z,3512
2017-06-10T08:19:57.200Z,3464
2017-06-10T08:20:56.892Z,3436
2017-06-10T08:21:57.503Z,3372
2017-06-10T08:22:57.502Z,3352
2017-06-10T08:23:56.891Z,3304
2017-06-10T08:24:57.204Z,3292
2017-06-10T08:25:56.885Z,3008
2017-06-10T08:26:57.191Z,3240
2017-06-10T08:27:57.190Z,3140
2017-06-10T08:28:57.497Z,3072
2017-06-10T08:29:57.490Z,2836
2017-06-10T08:30:57.185Z,2828
2017-06-10T08:31:57.186Z,2760
2017-06-10T08:32:57.491Z,2820
2017-06-10T08:33:57.178Z,2824
2017-06-10T08:34:57.484Z,2848
2017-06-10T08:35:57.487Z,2688
2017-06-10T08:36:57.482Z,2568
2017-06-10T08:37:57.479Z,2576
2017-06-10T08:38:57.476Z,2676
2017-06-10T08:39:57.172Z,2952
2017-06-10T08:40:57.166Z,2960
2017-06-10T08:41:57.474Z,2832
2017-06-10T08:42:57.476Z,2780
2017-06-10T08:43:56.554Z,2352
2017-06-10T08:44:57.471Z,2276
2017-06-10T08:45:57.466Z,2344
2017-06-10T08:46:57.162Z,2248
2017-06-10T08:47:57.462Z,2200
2017-06-10T08:48:57.157Z,2204
2017-06-10T08:49:57.154Z,2304
2017-06-10T08:50:57.459Z,2496
2017-06-10T08:51:57.147Z,2508
2017-06-10T08:52:57.148Z,2500
2017-06-10T08:53:57.148Z,2432
2017-06-10T08:54:57.453Z,2524
2017-06-10T08:55:57.142Z,2536
2017-06-10T08:56:57.143Z,2544
2017-06-10T08:57:57.446Z,2636
2017-06-10T08:58:57.445Z,2660
2017-06-10T08:59:57.458Z,2692
2017-06-10T09:00:57.435Z,2504
2017-06-10T09:01:57.439Z,2196
2017-06-10T09:02:57.125Z,2052
2017-06-10T09:03:57.432Z,2056
2017-06-10T09:04:56.819Z,2084
2017-06-10T09:05:57.428Z,2128
2017-06-10T09:06:57.119Z,2136
2017-06-10T09:07:57.422Z,2148
2017-06-10T09:08:56.502Z,2124
2017-06-10T09:09:57.138Z,2044
2017-06-10T09:10:57.110Z,2120
2017-06-10T09:11:57.421Z,2300
2017-06-10T09:12:56.802Z,2532
2017-06-10T09:13:56.796Z,2916
2017-06-10T09:14:56.800Z,3360
2017-06-10T09:15:57.099Z,3880
2017-06-10T09:16:57.097Z,4272
2017-06-10T09:17:56.798Z,4612
2017-06-10T09:18:56.793Z,4820
2017-06-10T09:19:57.396Z,5040
2017-06-10T09:20:57.396Z,5260
2017-06-10T09:21:57.399Z,5392
2017-06-10T09:22:57.090Z,5592
2017-06-10T09:23:57.088Z,5624
2017-06-10T09:24:56.778Z,5984
2017-06-10T09:25:57.080Z,5964
2017-06-10T09:26:57.079Z,5884
2017-06-10T09:27:57.384Z,5632
2017-06-10T09:28:57.383Z,5628
2017-06-10T09:29:57.382Z,5576
2017-06-10T09:30:57.084Z,5564
2017-06-10T09:31:57.373Z,5568
2017-06-10T09:32:57.064Z,5536
2017-06-10T09:33:57.067Z,5360
2017-06-10T09:34:56.758Z,5192
2017-06-10T09:35:57.367Z,5112
2017-06-10T09:36:57.057Z,5112
2017-06-10T09:37:57.367Z,5176
2017-06-10T09:38:57.357Z,5332
2017-06-10T09:39:57.057Z,5448
2017-06-10T09:40:56.754Z,5400
2017-06-10T09:41:57.361Z,5372
2017-06-10T09:42:57.363Z,5312
2017-06-10T09:43:57.049Z,5348
2017-06-10T09:44:57.354Z,5304
2017-06-10T09:45:57.040Z,5188
2017-06-10T09:46:56.742Z,5076
2017-06-10T09:47:56.785Z,5100
2017-06-10T09:48:57.372Z,5064
2017-06-10T09:49:56.732Z,5132
2017-06-10T09:50:56.737Z,5176
2017-06-10T09:51:56.728Z,5292
2017-06-10T09:52:57.035Z,5392
2017-06-10T09:53:57.336Z,5404
2017-06-10T09:54:57.336Z,5308
2017-06-10T09:55:57.336Z,5268
2017-06-10T09:56:57.332Z,5220
2017-06-10T09:57:57.332Z,5252
2017-06-10T09:58:57.332Z,5256
2017-06-10T09:59:57.022Z,5136
2017-06-10T10:00:57.021Z,5156
2017-06-10T10:01:57.322Z,5040
2017-06-10T10:02:57.321Z,4992
2017-06-10T10:03:57.013Z,5000
2017-06-10T10:04:57.320Z,5076
2017-06-10T10:05:57.011Z,5212
2017-06-10T10:06:56.727Z,5296
2017-06-10T10:07:57.007Z,5400
2017-06-10T10:08:57.312Z,5476
2017-06-10T10:09:57.314Z,5504
2017-06-10T10:10:57.308Z,5524
2017-06-10T10:11:57.303Z,5588
2017-06-10T10:12:57.303Z,5612
2017-06-10T10:13:57.331Z,5780
2017-06-10T10:14:56.996Z,5824
2017-06-10T10:15:56.993Z,5748
2017-06-10T10:16:57.305Z,5588
2017-06-10T10:17:56.996Z,5464
2017-06-10T10:18:56.993Z,5432
2017-06-10T10:19:56.990Z,5508
2017-06-10T10:20:56.992Z,5556
2017-06-10T10:21:56.685Z,5660
2017-06-10T10:22:57.013Z,5792
2017-06-10T10:23:56.984Z,5780
2017-06-10T10:24:57.297Z,5760
2017-06-10T10:25:56.678Z,5744
2017-06-10T10:26:56.974Z,5792
2017-06-10T10:27:56.976Z,5772
2017-06-10T10:28:56.972Z,5672
2017-06-10T10:29:57.280Z,5596
2017-06-10T10:30:57.279Z,5592
2017-06-10T10:31:57.276Z,5504
2017-06-10T10:32:57.276Z,5428
2017-06-10T10:33:57.274Z,5376
2017-06-10T10:34:56.961Z,5364
2017-06-10T10:35:56.963Z,5388
2017-06-10T10:36:56.657Z,5300
2017-06-10T10:37:57.267Z,5152
2017-06-10T10:38:56.961Z,5112
2017-06-10T10:39:56.957Z,5252
2017-06-10T10:40:56.963Z,5204
2017-06-10T10:41:57.258Z,5180
2017-06-10T10:42:56.649Z,4984
2017-06-10T10:43:56.344Z,4920
2017-06-10T10:44:57.255Z,4844
2017-06-10T10:45:57.252Z,4844
2017-06-10T10:46:57.253Z,4920
2017-06-10T10:47:57.263Z,5084
2017-06-10T10:48:56.944Z,5152
2017-06-10T10:49:57.258Z,5112
2017-06-10T10:50:57.245Z,5192
2017-06-10T10:51:57.249Z,5244
2017-06-10T10:52:56.939Z,5256
2017-06-10T10:53:57.249Z,5292
2017-06-10T10:54:56.628Z,5396
2017-06-10T10:55:56.935Z,5368
2017-06-10T10:56:57.238Z,5316
2017-06-10T10:57:56.937Z,5252
2017-06-10T10:58:56.622Z,5192
2017-06-10T10:59:56.923Z,5140
2017-06-10T11:00:56.934Z,5088
2017-06-10T11:01:57.231Z,5048
2017-06-10T11:02:57.230Z,4968
2017-06-10T11:03:56.923Z,4896
2017-06-10T11:04:57.233Z,4816
2017-06-10T11:05:56.919Z,4716
2017-06-10T11:06:56.917Z,4584
2017-06-10T11:07:57.227Z,4480
2017-06-10T11:08:57.220Z,4368
2017-06-10T11:09:57.222Z,4304
2017-06-10T11:10:56.915Z,4208
2017-06-10T11:11:56.910Z,4200
2017-06-10T11:12:57.217Z,4168
2017-06-10T11:13:56.908Z,4112
2017-06-10T11:14:56.601Z,4036
2017-06-10T11:15:57.211Z,3916
2017-06-10T11:16:56.905Z,4020
2017-06-10T11:17:57.209Z,3964
2017-06-10T11:18:57.205Z,3928
2017-06-10T11:19:56.901Z,3884
2017-06-10T11:20:57.201Z,3848
2017-06-10T11:21:57.198Z,3804
2017-06-10T11:22:57.198Z,3852
2017-06-10T11:23:56.894Z,3836
2017-06-10T11:24:56.897Z,3824
2017-06-10T11:25:57.196Z,3792
2017-06-10T11:26:56.886Z,3744
2017-06-10T11:27:56.889Z,3696
2017-06-10T11:28:56.884Z,3604
2017-06-10T11:29:57.189Z,3380
2017-06-10T11:30:56.884Z,3120
2017-06-10T11:31:57.185Z,2952
2017-06-10T11:32:57.185Z,2716
2017-06-10T11:33:57.190Z,2488
2017-06-10T11:34:57.181Z,2236
2017-06-10T11:35:57.175Z,2132
2017-06-10T11:36:56.870Z,2048
2017-06-10T11:37:57.175Z,1940
2017-06-10T11:38:57.213Z,1796
2017-06-10T11:39:56.867Z,1688
2017-06-10T11:40:56.866Z,1628
2017-06-10T11:41:57.170Z,1556
2017-06-10T11:42:57.171Z,1484
2017-06-10T11:43:56.852Z,1360
2017-06-10T11:44:57.160Z,1292
2017-06-10T11:45:57.159Z,1252
2017-06-10T11:46:57.157Z,1236
2017-06-10T11:47:56.849Z,1208
2017-06-10T11:48:56.847Z,1208
2017-06-10T11:49:57.150Z,1220
2017-06-10T11:50:56.843Z,1208
2017-06-10T11:51:56.844Z,1216
2017-06-10T11:52:56.838Z,1220
2017-06-10T11:53:57.144Z,1212
2017-06-10T11:54:56.834Z,1208
2017-06-10T11:55:57.137Z,1176
2017-06-10T11:56:57.135Z,1144
2017-06-10T11:57:56.835Z,1116
2017-06-10T11:58:56.826Z,1104
2017-06-10T11:59:57.133Z,1104
2017-06-10T12:00:56.830Z,1100
2017-06-10T12:01:56.818Z,1108
2017-06-10T12:02:57.127Z,1120
2017-06-10T12:03:57.128Z,1132
2017-06-10T12:04:57.122Z,1116
2017-06-10T12:05:57.117Z,1096
2017-06-10T12:06:57.115Z,1088
2017-06-10T12:07:56.806Z,1096
2017-06-10T12:08:56.805Z,1100
2017-06-10T12:09:56.803Z,1116
2017-06-10T12:10:57.108Z,1132
2017-06-10T12:11:56.805Z,1140
2017-06-10T12:12:56.491Z,1168
2017-06-10T12:13:57.103Z,1180
2017-06-10T12:14:57.098Z,1188
2017-06-10T12:15:57.099Z,1200
2017-06-10T12:16:56.478Z,1192
2017-06-10T12:17:57.093Z,1188
2017-06-10T12:18:57.087Z,1204
2017-06-10T12:19:56.476Z,1196
2017-06-10T12:20:57.084Z,1164
2017-06-10T12:21:57.079Z,1152
2017-06-10T12:22:57.083Z,1128
2017-06-10T12:23:56.774Z,1096
2017-06-10T12:24:57.076Z,1076
2017-06-10T12:25:56.762Z,1056
2017-06-10T12:26:57.072Z,1032
2017-06-10T12:27:56.763Z,1008
2017-06-10T12:28:57.069Z,984
2017-06-10T12:29:56.757Z,980
2017-06-10T12:30:57.063Z,972
2017-06-10T12:31:57.058Z,972
2017-06-10T12:32:57.059Z,968
2017-06-10T12:33:56.754Z,984
2017-06-10T12:34:57.053Z,1004
2017-06-10T12:35:56.742Z,1004
2017-06-10T12:36:56.749Z,1000
2017-06-10T12:37:56.739Z,992
2017-06-10T12:38:57.042Z,984
2017-06-10T12:39:56.742Z,980
2017-06-10T12:40:57.051Z,964
2017-06-10T12:41:57.035Z,956
2017-06-10T12:42:57.030Z,960
2017-06-10T12:43:57.033Z,944
2017-06-10T12:44:56.920Z,940
2017-06-10T12:45:56.719Z,936
2017-06-10T12:46:57.022Z,940
2017-06-10T12:47:56.714Z,944
2017-06-10T12:48:56.715Z,936
2017-06-10T12:49:56.410Z,948
2017-06-10T12:50:57.033Z,952
2017-06-10T12:51:56.708Z,940
2017-06-10T12:52:56.702Z,940
2017-06-10T12:53:57.001Z,932
2017-06-10T12:54:56.695Z,928
2017-06-10T12:55:57.010Z,936
2017-06-10T12:56:57.002Z,940
2017-06-10T12:57:56.686Z,932
2017-06-10T12:58:56.688Z,940
2017-06-10T12:59:56.993Z,944
2017-06-10T13:00:56.988Z,960
2017-06-10T13:01:56.985Z,956
2017-06-10T13:02:56.984Z,940
2017-06-10T13:03:56.678Z,924
2017-06-10T13:04:56.979Z,928
2017-06-10T13:05:56.671Z,920
2017-06-10T13:06:56.976Z,912
2017-06-10T13:07:56.662Z,900
2017-06-10T13:08:56.969Z,900
2017-06-10T13:09:56.970Z,896
2017-06-10T13:10:56.656Z,896
2017-06-10T13:11:56.655Z,888
2017-06-10T13:12:56.654Z,880
2017-06-10T13:13:56.703Z,868
2017-06-10T13:14:56.654Z,864
2017-06-10T13:15:56.645Z,856
2017-06-10T13:16:56.643Z,852
2017-06-10T13:17:56.946Z,852
2017-06-10T13:18:56.942Z,848
2017-06-10T13:19:56.942Z,848
2017-06-10T13:20:56.632Z,852
2017-06-10T13:21:56.934Z,848
2017-06-10T13:22:56.933Z,844
2017-06-10T13:23:56.932Z,840
2017-06-10T13:24:56.931Z,836
2017-06-10T13:25:56.926Z,832
2017-06-10T13:26:56.615Z,836
2017-06-10T13:27:56.921Z,832
2017-06-10T13:28:56.614Z,836
2017-06-10T13:29:56.913Z,832
2017-06-10T13:30:56.910Z,832
2017-06-10T13:31:56.915Z,828
2017-06-10T13:32:56.906Z,828
2017-06-10T13:33:56.296Z,828
2017-06-10T13:34:56.908Z,824
2017-06-10T13:35:56.594Z,824
2017-06-10T13:36:56.902Z,812
2017-06-10T13:37:56.592Z,824
2017-06-10T13:38:56.590Z,832
2017-06-10T13:39:56.279Z,832
2017-06-10T13:40:56.582Z,828